Time;durP1;ratioP1;P1;durP2;ratioP2;P2;SDS_P1;SDS_P2;PMS_P1;PMS_P2;Temp;Humidity;BMP_temperature;BMP_pressure;BME280_temperature;BME280_humidity;BME280_pressure;Samples;Min_cycle;Max_cycle;Signal;HPM_P1;HPM_P2
2023/06/12 00:03:28;;;;;;;13.75;10.00;;;;;;;15.38;100.00;101317.16;10502847;28;20052;-79
2023/06/12 00:08:33;;;;;;;9.00;7.10;;;;;;;15.24;100.00;101317.56;10472146;28;20060;-80
2023/06/12 00:13:34;;;;;;;13.18;7.93;;;;;;;15.16;100.00;101321.66;10479020;28;1199422;-79
2023/06/12 00:18:35;;;;;;;13.15;7.55;;;;;;;15.06;100.00;101320.47;10520385;28;20066;-79
2023/06/12 00:23:36;;;;;;;9.30;7.83;;;;;;;15.01;100.00;101326.38;10529168;28;20036;-80
2023/06/12 00:28:37;;;;;;;10.38;7.07;;;;;;;14.94;100.00;101320.88;10478394;28;20790;-79
2023/06/12 00:33:38;;;;;;;10.75;7.68;;;;;;;14.82;100.00;101323.06;10512428;28;20074;-80
2023/06/12 00:38:39;;;;;;;10.15;6.47;;;;;;;14.72;100.00;101320.91;10493111;28;20483;-79
2023/06/12 00:43:39;;;;;;;11.85;6.57;;;;;;;14.73;100.00;101315.72;10510933;28;20037;-80
2023/06/12 00:48:40;;;;;;;8.20;6.15;;;;;;;14.73;100.00;101309.53;10489046;28;20111;-79
2023/06/12 00:53:41;;;;;;;11.23;8.18;;;;;;;14.68;100.00;101307.59;10510724;28;20039;-80
2023/06/12 00:58:41;;;;;;;14.25;8.73;;;;;;;14.64;100.00;101318.84;10510055;28;20116;-79
2023/06/12 01:03:44;;;;;;;24.77;10.57;;;;;;;14.53;100.00;101315.81;10469068;28;20523;-79
2023/06/12 01:08:56;;;;;;;20.50;6.72;;;;;;;14.38;100.00;101318.75;10470930;28;20376;-79
2023/06/12 01:13:57;;;;;;;9.90;7.13;;;;;;;14.29;100.00;101313.13;10463745;28;20044;-79
2023/06/12 01:18:57;;;;;;;8.23;6.45;;;;;;;14.27;100.00;101312.16;10470619;28;20127;-80
2023/06/12 01:24:12;;;;;;;10.52;7.65;;;;;;;14.26;100.00;101307.72;10529653;28;20484;-80
2023/06/12 01:29:28;;;;;;;9.80;7.30;;;;;;;14.25;100.00;101313.84;10510468;28;20820;-80
2023/06/12 01:34:43;;;;;;;11.40;7.18;;;;;;;14.21;100.00;101312.84;10475144;28;20078;-80
2023/06/12 01:39:49;;;;;;;10.57;7.68;;;;;;;14.18;100.00;101306.53;10466659;28;20033;-80
2023/06/12 01:44:50;;;;;;;13.40;7.25;;;;;;;14.13;100.00;101303.72;10497842;28;20038;-80
2023/06/12 01:49:51;;;;;;;11.33;8.13;;;;;;;14.14;100.00;101297.63;10506808;28;20133;-80
2023/06/12 01:54:51;;;;;;;8.82;7.00;;;;;;;14.13;100.00;101298.47;10485723;28;20182;-80
2023/06/12 01:59:53;;;;;;;14.65;8.25;;;;;;;14.14;100.00;101300.25;10480896;28;20040;-80
2023/06/12 02:04:53;;;;;;;8.98;7.18;;;;;;;14.14;100.00;101301.97;10510333;28;20040;-80
2023/06/12 02:09:54;;;;;;;9.90;6.72;;;;;;;14.09;100.00;101299.19;10526065;28;20082;-80
2023/06/12 02:14:57;;;;;;;11.18;8.18;;;;;;;14.06;100.00;101297.31;10525710;28;20098;-80
2023/06/12 02:19:57;;;;;;;11.32;6.90;;;;;;;13.95;100.00;101294.25;10509331;28;20380;-80
2023/06/12 02:24:58;;;;;;;15.10;7.22;;;;;;;13.84;100.00;101302.53;10504286;28;20055;-79
2023/06/12 02:29:58;;;;;;;12.70;7.65;;;;;;;13.69;100.00;101305.44;10499557;28;20060;-79
2023/06/12 02:35:00;;;;;;;9.57;8.20;;;;;;;13.58;100.00;101303.25;10507750;28;20071;-80
2023/06/12 02:40:01;;;;;;;12.15;8.70;;;;;;;13.48;100.00;101299.31;10508100;28;20082;-80
2023/06/12 02:45:01;;;;;;;11.30;7.75;;;;;;;13.41;100.00;101301.59;10504070;28;20080;-80
2023/06/12 02:50:02;;;;;;;10.70;8.65;;;;;;;13.30;100.00;101293.22;10489988;28;20493;-80
2023/06/12 02:55:03;;;;;;;8.20;6.38;;;;;;;13.24;100.00;101298.22;10525581;28;20032;-80
2023/06/12 03:00:04;;;;;;;10.32;7.78;;;;;;;13.17;100.00;101307.59;10485520;28;20127;-79
2023/06/12 03:05:05;;;;;;;15.18;8.00;;;;;;;13.21;100.00;101310.41;10502683;28;20850;-79
2023/06/12 03:10:06;;;;;;;11.55;8.68;;;;;;;13.12;100.00;101296.84;10488962;28;20106;-80
2023/06/12 03:15:08;;;;;;;11.77;8.80;;;;;;;13.09;100.00;101303.72;10506985;28;20501;-79
2023/06/12 03:20:09;;;;;;;15.38;9.40;;;;;;;12.97;100.00;101307.59;10521790;28;20438;-79
2023/06/12 03:25:10;;;;;;;14.43;8.63;;;;;;;12.88;100.00;101309.81;10477092;28;20510;-78
2023/06/12 03:30:11;;;;;;;10.65;7.95;;;;;;;12.78;100.00;101309.41;10464430;28;20045;-78
2023/06/12 03:35:14;;;;;;;11.70;8.00;;;;;;;12.78;100.00;101308.47;10489574;28;20048;-76
2023/06/12 03:40:16;;;;;;;12.00;7.72;;;;;;;12.80;100.00;101309.44;10487094;28;20092;-77
2023/06/12 03:45:16;;;;;;;13.52;8.73;;;;;;;12.82;100.00;101309.53;10522548;28;20090;-78
2023/06/12 03:50:19;;;;;;;10.20;6.53;;;;;;;12.86;100.00;101304.47;10490987;28;20035;-77
2023/06/12 03:55:20;;;;;;;13.13;7.55;;;;;;;12.91;100.00;101305.56;10503771;28;20117;-78
2023/06/12 04:00:24;;;;;;;12.70;7.27;;;;;;;12.96;100.00;101305.81;10496399;28;20040;-78
2023/06/12 04:05:26;;;;;;;13.82;7.78;;;;;;;12.98;100.00;101305.84;10482074;28;20083;-78
2023/06/12 04:10:26;;;;;;;10.37;6.60;;;;;;;13.05;100.00;101311.47;10527300;28;20040;-77
2023/06/12 04:15:28;;;;;;;12.20;8.05;;;;;;;13.13;100.00;101316.16;10501671;28;20127;-77
2023/06/12 04:20:29;;;;;;;14.77;9.13;;;;;;;13.20;100.00;101320.88;10512183;28;20525;-77
2023/06/12 04:25:35;;;;;;;12.25;7.78;;;;;;;13.54;100.00;101306.59;10504374;28;20043;-77
2023/06/12 04:30:35;;;;;;;14.00;7.63;;;;;;;13.97;100.00;101317.97;10528571;28;20090;-77
2023/06/12 04:35:36;;;;;;;18.40;8.75;;;;;;;14.30;100.00;101311.41;10530845;28;20124;-77
2023/06/12 04:40:37;;;;;;;12.40;8.00;;;;;;;14.64;100.00;101310.97;10528467;28;20051;-77
2023/06/12 04:45:44;;;;;;;11.83;7.70;;;;;;;15.02;100.00;101315.00;10507011;28;20040;-76
2023/06/12 04:50:47;;;;;;;11.30;6.93;;;;;;;15.17;100.00;101310.28;10479586;28;20123;-77
2023/06/12 04:55:50;;;;;;;8.85;7.25;;;;;;;15.42;100.00;101316.41;10501556;28;20554;-77
2023/06/12 05:00:55;;;;;;;9.35;7.20;;;;;;;15.74;100.00;101310.47;10518259;28;20132;-77
2023/06/12 05:05:55;;;;;;;11.98;7.47;;;;;;;16.18;100.00;101311.06;10526920;28;20411;-77
2023/06/12 05:10:56;;;;;;;11.38;7.72;;;;;;;16.65;100.00;101315.13;10492609;28;20042;-78
2023/06/12 05:15:56;;;;;;;14.35;8.98;;;;;;;17.11;100.00;101307.63;10486667;28;20611;-78
2023/06/12 05:20:59;;;;;;;13.55;7.05;;;;;;;17.66;100.00;101309.97;10469304;28;20098;-78
2023/06/12 05:25:59;;;;;;;17.00;7.97;;;;;;;18.57;100.00;101316.53;10520598;28;20108;-77
2023/06/12 05:31:00;;;;;;;15.57;8.70;;;;;;;19.45;100.00;101309.47;10466795;28;20112;-78
2023/06/12 05:36:00;;;;;;;16.67;7.43;;;;;;;20.37;100.00;101307.44;10496146;28;20127;-78
2023/06/12 05:41:01;;;;;;;14.97;7.80;;;;;;;21.68;100.00;101304.53;10519962;28;20147;-77
2023/06/12 05:46:01;;;;;;;24.50;8.27;;;;;;;22.56;100.00;101300.72;10498693;28;20463;-77
2023/06/12 05:51:03;;;;;;;19.43;8.03;;;;;;;23.11;100.00;101310.69;10513848;28;20040;-78
2023/06/12 05:56:03;;;;;;;14.77;7.68;;;;;;;24.26;82.71;101305.41;10527295;28;20040;-77
2023/06/12 06:01:04;;;;;;;10.83;6.50;;;;;;;25.26;78.58;101305.00;10503784;28;20039;-77
2023/06/12 06:06:05;;;;;;;13.48;6.80;;;;;;;25.84;64.99;101310.84;10496994;28;20306;-78
2023/06/12 06:11:06;;;;;;;20.75;7.57;;;;;;;26.61;69.61;101303.84;10509845;28;20040;-78
2023/06/12 06:16:06;;;;;;;;;;;;;;;27.54;60.99;101298.06;10491938;28;20068;-78
2023/06/12 06:21:06;;;;;;;9.03;6.30;;;;;;;27.86;54.24;101293.06;10491169;28;20014;-80
2023/06/12 06:26:09;;;;;;;10.50;6.25;;;;;;;28.24;51.79;101304.06;10505862;28;20095;-79
2023/06/12 06:31:09;;;;;;;9.45;5.82;;;;;;;28.81;46.17;101302.03;10508437;28;20039;-77
2023/06/12 06:36:10;;;;;;;9.40;5.88;;;;;;;28.65;51.72;101305.00;10508258;28;20032;-80
2023/06/12 06:41:10;;;;;;;9.35;6.07;;;;;;;28.93;44.32;101301.75;10487288;28;20041;-77
2023/06/12 06:46:11;;;;;;;11.43;6.50;;;;;;;28.85;49.59;101304.63;10495425;28;20505;-76
2023/06/12 06:51:12;;;;;;;8.02;6.15;;;;;;;29.52;42.31;101305.81;10490776;28;20042;-76
2023/06/12 06:56:13;;;;;;;8.70;5.72;;;;;;;29.30;43.35;101294.63;10468803;28;20111;-76
2023/06/12 07:01:13;;;;;;;7.28;5.78;;;;;;;28.67;42.07;101299.63;10484337;28;20028;-77
2023/06/12 07:06:14;;;;;;;9.45;5.82;;;;;;;29.11;43.17;101300.47;10464920;28;20472;-77
2023/06/12 07:11:15;;;;;;;8.85;6.82;;;;;;;29.57;42.31;101300.31;10482955;28;20043;-76
2023/06/12 07:16:16;;;;;;;8.40;5.78;;;;;;;30.29;40.16;101294.81;10464964;28;20040;-76
2023/06/12 07:21:17;;;;;;;7.30;5.65;;;;;;;29.76;39.41;101289.06;10465578;28;20063;-76
2023/06/12 07:26:18;;;;;;;10.02;5.50;;;;;;;29.92;39.32;101286.81;10483165;28;20067;-76
2023/06/12 07:31:18;;;;;;;8.85;6.07;;;;;;;30.61;40.02;101281.34;10501445;28;20035;-75
2023/06/12 07:36:19;;;;;;;7.88;5.95;;;;;;;31.89;37.92;101280.88;10491593;28;20056;-76
2023/06/12 07:41:20;;;;;;;7.75;5.78;;;;;;;32.00;36.20;101266.94;10456260;28;20419;-75
2023/06/12 07:46:20;;;;;;;9.55;5.82;;;;;;;31.61;38.42;101279.13;10505018;28;20075;-76
2023/06/12 07:51:21;;;;;;;12.93;6.78;;;;;;;31.15;39.01;101276.06;10505942;28;20064;-76
2023/06/12 07:56:22;;;;;;;6.95;5.55;;;;;;;32.11;37.67;101278.28;10473432;28;20055;-75
2023/06/12 08:01:23;;;;;;;11.88;6.95;;;;;;;32.31;36.21;101277.59;10472905;28;20434;-76
2023/06/12 08:06:24;;;;;;;7.47;5.30;;;;;;;32.49;33.52;101273.28;10490178;28;20098;-75
2023/06/12 08:11:25;;;;;;;8.38;5.78;;;;;;;32.15;34.93;101279.06;10472510;28;20048;-75
2023/06/12 08:16:26;;;;;;;10.85;6.90;;;;;;;32.19;34.59;101270.75;10471554;28;20124;-75
2023/06/12 08:21:26;;;;;;;7.15;5.72;;;;;;;32.84;35.18;101269.25;10471314;28;20040;-74
2023/06/12 08:26:27;;;;;;;11.95;6.45;;;;;;;33.72;32.35;101262.06;10489257;28;20113;-75
2023/06/12 08:31:27;;;;;;;7.72;6.13;;;;;;;33.59;33.49;101273.47;10472259;28;20036;-76
2023/06/12 08:36:28;;;;;;;11.20;6.68;;;;;;;32.93;32.45;101266.22;10488313;28;20040;-77
2023/06/12 08:41:28;;;;;;;7.03;6.03;;;;;;;32.36;34.67;101264.75;10488211;28;20115;-76
2023/06/12 08:46:30;;;;;;;13.90;6.13;;;;;;;33.50;34.05;101260.28;10454218;28;20049;-76
2023/06/12 08:51:32;;;;;;;8.18;5.78;;;;;;;33.12;35.15;101265.47;10488315;28;20111;-78
2023/06/12 08:56:33;;;;;;;16.27;5.72;;;;;;;33.17;34.99;101264.34;10470404;28;20077;-76
2023/06/12 09:01:36;;;;;;;11.60;6.82;;;;;;;33.55;33.33;101263.69;10469723;28;20378;-75
2023/06/12 09:06:37;;;;;;;8.63;7.05;;;;;;;33.81;33.39;101251.72;10454097;28;20473;-75
2023/06/12 09:11:38;;;;;;;13.00;7.35;;;;;;;34.22;33.90;101250.78;10452673;28;20503;-76
2023/06/12 09:16:38;;;;;;;8.32;6.63;;;;;;;34.14;33.55;101252.13;10487420;28;20120;-77
2023/06/12 09:21:39;;;;;;;8.68;5.95;;;;;;;34.58;34.58;101256.44;10487168;28;20377;-77
2023/06/12 09:26:41;;;;;;;11.82;6.63;;;;;;;34.47;31.37;101255.13;10486290;28;20127;-76
2023/06/12 09:31:42;;;;;;;9.57;6.28;;;;;;;34.74;31.00;101254.75;10468507;28;20041;-78
2023/06/12 09:36:42;;;;;;;7.82;5.97;;;;;;;34.53;30.43;101254.81;10467910;28;20116;-78
2023/06/12 09:41:49;;;;;;;11.48;7.20;;;;;;;33.85;31.12;101255.16;10486955;28;20036;-78
2023/06/12 09:46:50;;;;;;;9.23;5.43;;;;;;;34.41;30.14;101249.94;10485637;28;20037;-77
2023/06/12 09:51:51;;;;;;;7.65;6.47;;;;;;;34.87;31.04;101255.06;10467978;28;20043;-77
2023/06/12 09:56:52;;;;;;;9.85;6.18;;;;;;;34.42;30.85;101251.69;10492248;28;20380;-76
2023/06/12 10:01:59;;;;;;;12.80;6.60;;;;;;;34.17;33.03;101251.97;10492835;28;20826;-77
2023/06/12 10:07:07;;;;;;;10.27;7.47;;;;;;;34.38;30.53;101252.81;10492770;28;20029;-77
2023/06/12 10:12:08;;;;;;;12.25;7.40;;;;;;;34.67;31.57;101247.84;10492235;28;20032;-76
2023/06/12 10:17:09;;;;;;;7.72;6.78;;;;;;;34.98;30.99;101236.41;10509507;28;20032;-79
2023/06/12 10:22:09;;;;;;;10.48;6.93;;;;;;;34.22;30.89;101242.66;10491655;28;20375;-78
2023/06/12 10:27:11;;;;;;;8.25;6.43;;;;;;;34.83;30.17;101235.28;10507742;28;20119;-77
2023/06/12 10:32:14;;;;;;;13.52;6.05;;;;;;;34.39;30.79;101239.16;10508745;28;20425;-77
2023/06/12 10:37:31;;;;;;;10.10;6.32;;;;;;;34.14;30.23;101235.81;10507405;28;20040;-75
2023/06/12 10:42:39;;;;;;;13.27;6.95;;;;;;;34.67;30.02;101228.81;10525753;28;20472;-76
2023/06/12 10:47:40;;;;;;;8.00;6.78;;;;;;;35.13;29.47;101221.16;10525687;28;20040;-75
2023/06/12 10:52:52;;;;;;;11.00;5.47;;;;;;;35.03;29.75;101217.13;10508044;28;20115;-76
2023/06/12 10:57:54;;;;;;;7.93;6.13;;;;;;;34.51;30.58;101213.25;10524976;28;20420;-76
2023/06/12 11:02:59;;;;;;;12.18;6.50;;;;;;;34.34;30.77;101205.00;10491171;28;20040;-77
2023/06/12 11:08:01;;;;;;;9.50;6.07;;;;;;;34.06;30.32;101214.44;10524300;28;20047;-78
2023/06/12 11:13:02;;;;;;;9.20;6.43;;;;;;;33.90;31.04;101211.53;10525850;28;20028;-80
2023/06/12 11:18:03;;;;;;;17.45;7.10;;;;;;;34.54;29.75;101202.25;10506575;28;20036;-78
2023/06/12 11:23:05;;;;;;;9.85;6.65;;;;;;;34.73;30.17;101206.78;10523898;28;20044;-79
2023/06/12 11:28:05;;;;;;;8.82;6.63;;;;;;;34.32;29.71;101196.94;10491377;28;20422;-78
2023/06/12 11:33:10;;;;;;;8.52;6.03;;;;;;;34.43;31.28;101198.28;10489695;28;20028;-78
2023/06/12 11:38:14;;;;;;;14.38;7.43;;;;;;;34.58;31.08;101197.56;10507112;28;20039;-78
2023/06/12 11:43:16;;;;;;;10.77;6.20;;;;;;;34.53;29.22;101196.91;10506408;28;20043;-79
2023/06/12 11:48:17;;;;;;;7.78;5.88;;;;;;;35.02;30.46;101190.91;10507476;28;20036;-79
2023/06/12 11:53:18;;;;;;;6.85;6.15;;;;;;;34.86;29.97;101185.34;10524335;28;20029;-80
2023/06/12 11:58:18;;;;;;;7.18;5.55;;;;;;;34.75;29.28;101187.69;10488945;28;20085;-78
2023/06/12 12:03:19;;;;;;;7.13;5.75;;;;;;;35.07;27.59;101177.09;10507237;28;20555;-78
2023/06/12 12:08:24;;;;;;;7.50;5.75;;;;;;;35.14;27.42;101173.94;10505906;28;20122;-80
2023/06/12 12:13:25;;;;;;;7.43;5.53;;;;;;;35.57;27.37;101168.16;10505920;28;20028;-79
2023/06/12 12:18:25;;;;;;;7.40;4.97;;;;;;;35.45;26.25;101173.31;10510180;28;20119;-79
2023/06/12 12:23:26;;;;;;;20.23;6.30;;;;;;;35.67;26.14;101170.38;10513483;28;20036;-79
2023/06/12 12:28:26;;;;;;;7.93;5.78;;;;;;;36.66;26.85;101162.22;10513542;28;20142;-78
2023/06/12 12:33:27;;;;;;;4.20;3.63;;;;;;;35.95;25.15;101166.16;10530394;28;20119;-78
2023/06/12 12:38:27;;;;;;;7.50;5.88;;;;;;;36.32;25.93;101157.78;10531329;28;20170;-78
2023/06/12 12:43:28;;;;;;;14.18;6.30;;;;;;;36.72;26.11;101152.78;10530329;28;20070;-79
2023/06/12 12:48:28;;;;;;;9.60;5.95;;;;;;;34.80;25.87;101153.03;10530330;28;20495;-80
2023/06/12 12:53:29;;;;;;;8.05;5.28;;;;;;;34.30;26.46;101151.78;10530611;28;20036;-78
2023/06/12 12:58:29;;;;;;;5.40;4.55;;;;;;;33.82;26.55;101153.06;10530555;28;20123;-78
2023/06/12 13:03:38;;;;;;;11.70;4.85;;;;;;;33.02;28.57;101141.16;10495540;28;20036;-79
2023/06/12 13:08:38;;;;;;;8.20;4.95;;;;;;;32.53;28.42;101140.44;10512356;28;20054;-78
2023/06/12 13:13:40;;;;;;;7.53;5.13;;;;;;;33.90;28.42;101139.09;10495632;28;20479;-79
2023/06/12 13:18:41;;;;;;;7.70;5.18;;;;;;;34.41;27.22;101139.47;10529163;28;20082;-78
2023/06/12 13:23:42;;;;;;;7.03;5.63;;;;;;;35.05;28.44;101130.06;10510520;28;20040;-77
2023/06/12 13:28:42;;;;;;;8.68;5.32;;;;;;;34.70;24.92;101122.69;10509604;28;20162;-79
2023/06/12 13:33:43;;;;;;;8.35;5.63;;;;;;;34.93;25.11;101132.41;10510748;28;20115;-78
2023/06/12 13:38:43;;;;;;;6.63;5.43;;;;;;;34.57;26.46;101136.03;10499003;28;20041;-79
2023/06/12 13:43:44;;;;;;;10.02;5.18;;;;;;;34.78;25.85;101125.91;10498635;28;20047;-79
2023/06/12 13:48:44;;;;;;;9.05;5.53;;;;;;;35.18;26.74;101133.00;10510663;28;20118;-78
2023/06/12 13:53:45;;;;;;;9.50;5.25;;;;;;;34.61;24.96;101124.03;10550320;27;20100;-79
2023/06/12 13:58:45;;;;;;;6.80;4.80;;;;;;;34.11;26.59;101134.56;10521474;28;20556;-80
2023/06/12 14:03:46;;;;;;;8.02;4.93;;;;;;;33.58;25.22;101127.03;10499823;28;20082;-79
2023/06/12 14:08:46;;;;;;;7.03;5.28;;;;;;;33.81;25.58;101123.25;10501335;28;20427;-79
2023/06/12 14:13:47;;;;;;;7.90;5.30;;;;;;;34.14;26.27;101111.78;10492064;28;20119;-78
2023/06/12 14:18:50;;;;;;;6.40;4.93;;;;;;;34.09;26.83;101116.56;10518834;28;20032;-78
2023/06/12 14:23:51;;;;;;;9.07;5.72;;;;;;;34.47;25.68;101100.25;10541918;28;20044;-80
2023/06/12 14:28:51;;;;;;;7.82;5.97;;;;;;;33.73;27.05;101103.72;10524421;28;20153;-78
2023/06/12 14:33:52;;;;;;;7.03;5.35;;;;;;;32.47;28.12;101106.38;10514524;28;20063;-79
2023/06/12 14:38:53;;;;;;;;;;;;;;;31.92;27.69;101099.47;10492598;28;20147;-77
2023/06/12 14:43:54;;;;;;;9.40;5.43;;;;;;;32.14;28.20;101085.09;10507301;28;19927;-78
2023/06/12 14:48:54;;;;;;;;;;;;;;;32.15;28.01;101085.03;10521517;28;20314;-78
2023/06/12 14:53:55;;;;;;;14.37;6.47;;;;;;;32.17;26.52;101076.84;10500655;28;19924;-78
2023/06/12 14:58:55;;;;;;;;;;;;;;;31.86;27.28;101083.47;10492812;28;20123;-78
2023/06/12 15:03:56;;;;;;;7.20;5.30;;;;;;;31.40;29.23;101073.41;10515728;28;19928;-78
2023/06/12 15:08:56;;;;;;;;;;;;;;;31.14;28.73;101074.31;10477353;28;20139;-77
2023/06/12 15:13:57;;;;;;;6.37;5.20;;;;;;;30.69;28.96;101063.22;10522474;28;20280;-78
2023/06/12 15:18:57;;;;;;;8.43;5.82;;;;;;;30.34;29.83;101065.22;10493011;28;20040;-78
2023/06/12 15:23:58;;;;;;;8.35;5.40;;;;;;;30.20;31.75;101056.69;10507555;28;20048;-78
2023/06/12 15:28:58;;;;;;;9.90;5.70;;;;;;;30.35;32.03;101058.91;10490139;28;20067;-78
2023/06/12 15:33:59;;;;;;;5.43;4.57;;;;;;;30.26;31.66;101060.09;10525340;28;20067;-79
2023/06/12 15:39:00;;;;;;;7.73;6.33;;;;;;;30.09;32.81;101060.59;10528513;28;20649;-77
2023/06/12 15:44:00;;;;;;;8.90;5.20;;;;;;;29.53;32.63;101064.06;10490161;28;20131;-76
2023/06/12 15:49:01;;;;;;;9.83;5.63;;;;;;;28.94;34.90;101061.09;10503666;28;20036;-77
2023/06/12 15:54:02;;;;;;;9.40;6.50;;;;;;;29.11;34.35;101063.38;10530117;28;20490;-77
2023/06/12 15:59:02;;;;;;;10.75;5.40;;;;;;;29.27;32.87;101065.63;10507865;28;20033;-78
2023/06/12 16:04:10;;;;;;;10.77;5.87;;;;;;;29.51;33.38;101058.69;10472422;28;20036;-77
2023/06/12 16:09:10;;;;;;;8.18;5.25;;;;;;;29.80;31.08;101054.25;10513778;28;20044;-78
2023/06/12 16:14:11;;;;;;;8.55;5.95;;;;;;;29.90;34.52;101054.88;10529329;28;20044;-78
2023/06/12 16:19:15;;;;;;;8.07;5.50;;;;;;;29.97;35.93;101050.16;10529920;28;20383;-78
2023/06/12 16:24:15;;;;;;;8.77;6.43;;;;;;;29.97;33.63;101045.66;10521709;28;20105;-77
2023/06/12 16:29:19;;;;;;;7.97;5.45;;;;;;;29.78;33.99;101045.31;10528321;28;20124;-78
2023/06/12 16:34:21;;;;;;;10.63;5.90;;;;;;;29.47;34.00;101040.84;10524919;28;20113;-79
2023/06/12 16:39:24;;;;;;;11.48;6.57;;;;;;;29.15;36.16;101037.19;10481536;28;20534;-78
2023/06/12 16:44:24;;;;;;;10.80;6.30;;;;;;;29.11;35.84;101046.28;10496383;28;20036;-78
2023/06/12 16:49:25;;;;;;;8.85;6.30;;;;;;;28.96;36.18;101035.00;10476948;28;20468;-78
2023/06/12 16:54:25;;;;;;;10.73;7.10;;;;;;;28.76;36.72;101042.69;10528896;28;20036;-77
2023/06/12 16:59:26;;;;;;;8.43;7.03;;;;;;;28.60;37.82;101035.00;10521186;28;20115;-77
2023/06/12 17:04:26;;;;;;;11.07;7.70;;;;;;;28.51;36.86;101036.13;10504975;28;20040;-77
2023/06/12 17:09:27;;;;;;;8.20;6.40;;;;;;;28.26;37.23;101038.53;10527446;28;20119;-78
2023/06/12 17:14:28;;;;;;;22.73;7.30;;;;;;;28.05;37.05;101031.81;10487019;28;20071;-77
2023/06/12 17:19:29;;;;;;;;;;;;;;;27.90;37.51;101033.94;10487573;28;20046;-77
2023/06/12 17:24:29;;;;;;;9.20;6.77;;;;;;;27.68;36.75;101028.13;10526190;28;19926;-78
2023/06/12 17:29:30;;;;;;;9.73;7.03;;;;;;;27.52;38.48;101043.69;10509468;28;20148;-78
2023/06/12 17:34:31;;;;;;;9.98;7.47;;;;;;;27.26;39.20;101034.31;10476531;28;20146;-78
2023/06/12 17:39:32;;;;;;;11.48;8.23;;;;;;;27.15;39.02;101028.25;10519905;28;20481;-79
2023/06/12 17:44:33;;;;;;;10.77;8.30;;;;;;;27.10;38.85;101036.41;10492397;28;20123;-79
2023/06/12 17:49:34;;;;;;;13.35;7.30;;;;;;;26.99;38.94;101043.75;10520550;28;20036;-78
2023/06/12 17:54:34;;;;;;;16.60;9.07;;;;;;;26.96;38.78;101039.34;10463981;28;20039;-83
2023/06/12 17:59:35;;;;;;;11.87;7.07;;;;;;;27.02;37.75;101022.22;10521696;28;20048;-80
2023/06/12 18:04:36;;;;;;;12.48;7.28;;;;;;;26.97;38.75;101022.31;10494190;28;20032;-78
2023/06/12 18:09:36;;;;;;;10.40;8.33;;;;;;;26.91;38.15;101025.13;10467901;28;20076;-77
2023/06/12 18:14:37;;;;;;;12.60;6.87;;;;;;;26.83;38.30;101030.63;10482253;28;20403;-78
2023/06/12 18:19:37;;;;;;;14.00;7.50;;;;;;;26.60;38.09;101033.66;10537283;28;20036;-78
2023/06/12 18:24:38;;;;;;;12.60;7.17;;;;;;;26.29;38.30;101018.94;10493417;28;20625;-79
2023/06/12 18:29:38;;;;;;;17.10;8.47;;;;;;;26.01;39.13;101021.13;10487062;28;20539;-78
2023/06/12 18:34:39;;;;;;;8.60;7.60;;;;;;;25.68;40.67;101028.72;10524982;28;20036;-79
2023/06/12 18:39:40;;;;;;;11.97;6.97;;;;;;;25.48;39.93;101028.03;10525746;28;20468;-79
2023/06/12 18:44:41;;;;;;;8.85;6.85;;;;;;;25.14;40.04;101028.38;10491303;28;20403;-77
2023/06/12 18:49:41;;;;;;;19.93;8.43;;;;;;;24.82;40.97;101034.06;10503316;28;20035;-77
2023/06/12 18:54:43;;;;;;;8.47;6.77;;;;;;;24.69;40.49;101036.81;10512361;28;20376;-77
2023/06/12 18:59:43;;;;;;;7.70;6.28;;;;;;;24.56;41.18;101029.78;10511324;28;20064;-78
2023/06/12 19:04:44;;;;;;;9.93;8.13;;;;;;;24.42;41.15;101033.47;10521896;28;20128;-78
2023/06/12 19:09:45;;;;;;;10.63;6.77;;;;;;;24.22;42.73;101038.94;10516611;28;20058;-78
2023/06/12 19:14:45;;;;;;;8.13;7.23;;;;;;;23.98;42.49;101040.81;10486059;28;20164;-78
2023/06/12 19:19:46;;;;;;;9.43;6.27;;;;;;;23.70;42.98;101048.09;10502094;28;20120;-77
2023/06/12 19:24:46;;;;;;;12.13;6.37;;;;;;;23.68;42.17;101042.72;10499264;28;20480;-78
2023/06/12 19:29:47;;;;;;;9.00;6.23;;;;;;;23.49;43.85;101049.94;10502322;28;20131;-77
2023/06/12 19:34:48;;;;;;;10.27;7.30;;;;;;;23.15;43.92;101056.19;10503942;28;20059;-78
2023/06/12 19:39:49;;;;;;;9.98;7.28;;;;;;;23.01;44.86;101058.00;10498017;28;20048;-78
2023/06/12 19:44:50;;;;;;;14.93;10.15;;;;;;;22.71;46.52;101065.13;10508616;28;20063;-78
2023/06/12 19:49:52;;;;;;;14.73;7.27;;;;;;;22.36;52.45;101080.16;10532651;28;20142;-78
2023/06/12 19:54:52;;;;;;;12.00;6.32;;;;;;;21.97;50.19;101082.69;10532459;28;20093;-78
2023/06/12 19:59:53;;;;;;;10.97;6.43;;;;;;;21.70;54.53;101091.47;10532162;28;20060;-78
2023/06/12 20:04:54;;;;;;;10.87;6.30;;;;;;;21.36;58.49;101105.44;10531166;28;20130;-79
2023/06/12 20:09:57;;;;;;;11.23;7.27;;;;;;;20.94;63.28;101105.13;10528024;28;20150;-77
2023/06/12 20:14:58;;;;;;;8.88;6.88;;;;;;;20.95;64.30;101108.66;10487580;28;20040;-77
2023/06/12 20:19:58;;;;;;;11.77;6.65;;;;;;;20.68;68.76;101116.38;10496818;28;20048;-77
2023/06/12 20:24:59;;;;;;;11.33;6.27;;;;;;;20.50;74.33;101117.06;10530865;28;20437;-78
2023/06/12 20:30:00;;;;;;;16.75;8.68;;;;;;;20.41;74.71;101111.66;10532011;28;20062;-78
2023/06/12 20:35:01;;;;;;;13.00;7.13;;;;;;;20.41;80.56;101118.75;10526947;28;20433;-77
2023/06/12 20:40:03;;;;;;;10.68;6.45;;;;;;;20.25;81.90;101114.16;10514065;28;20352;-79
2023/06/12 20:45:04;;;;;;;19.80;7.25;;;;;;;20.17;88.19;101123.78;10512780;28;20123;-80
2023/06/12 20:50:05;;;;;;;13.00;6.68;;;;;;;19.97;96.61;101118.25;10502029;28;20037;-77
2023/06/12 20:55:06;;;;;;;13.00;7.05;;;;;;;19.80;97.85;101121.53;10525944;28;20130;-78
2023/06/12 21:00:09;;;;;;;18.95;7.35;;;;;;;19.88;94.11;101121.63;10505722;28;20743;-79
2023/06/12 21:05:09;;;;;;;12.77;7.55;;;;;;;19.86;88.18;101117.19;10498883;28;20089;-79
2023/06/12 21:10:11;;;;;;;10.37;7.30;;;;;;;19.80;98.65;101117.97;10507931;28;20041;-78
2023/06/12 21:15:11;;;;;;;11.57;7.38;;;;;;;19.58;99.92;101111.50;10486238;28;20492;-79
2023/06/12 21:20:12;;;;;;;9.32;7.57;;;;;;;19.30;100.00;101113.72;10500240;28;20036;-78
2023/06/12 21:25:15;;;;;;;11.98;7.53;;;;;;;19.01;100.00;101112.38;10528235;28;20056;-79
2023/06/12 21:30:16;;;;;;;13.30;7.38;;;;;;;18.72;100.00;101122.47;10521407;28;20033;-79
2023/06/12 21:35:17;;;;;;;13.63;7.55;;;;;;;18.44;100.00;101114.88;10485440;28;20056;-79
2023/06/12 21:40:17;;;;;;;14.85;6.78;;;;;;;18.33;100.00;101119.06;10533426;28;20035;-79
2023/06/12 21:45:18;;;;;;;12.55;7.47;;;;;;;18.21;100.00;101122.38;10520408;28;20387;-79
2023/06/12 21:50:18;;;;;;;10.68;8.02;;;;;;;18.07;100.00;101119.44;10502679;28;20086;-78
2023/06/12 21:55:19;;;;;;;11.63;6.85;;;;;;;17.93;100.00;101115.56;10510359;28;20051;-79
2023/06/12 22:00:19;;;;;;;11.00;6.10;;;;;;;17.73;100.00;101116.03;10524548;28;20600;-78
2023/06/12 22:05:20;;;;;;;13.77;6.85;;;;;;;17.54;100.00;101114.72;10495721;28;20036;-78
2023/06/12 22:10:20;;;;;;;10.45;6.68;;;;;;;17.42;100.00;101123.25;10498574;28;20071;-78
2023/06/12 22:15:21;;;;;;;11.93;7.38;;;;;;;17.32;100.00;101124.81;10496570;28;20094;-79
2023/06/12 22:20:22;;;;;;;9.45;6.43;;;;;;;17.26;100.00;101120.25;10508766;28;20093;-78
2023/06/12 22:25:24;;;;;;;9.50;6.85;;;;;;;17.42;100.00;101124.16;10504686;28;20393;-78
2023/06/12 22:30:24;;;;;;;12.77;5.53;;;;;;;17.61;100.00;101128.13;10466907;28;20388;-80
2023/06/12 22:35:25;;;;;;;12.40;6.40;;;;;;;17.67;100.00;101126.47;10519665;28;20063;-79
2023/06/12 22:40:25;;;;;;;9.23;5.88;;;;;;;17.48;100.00;101128.69;10491429;28;20367;-80
2023/06/12 22:45:26;;;;;;;11.13;6.97;;;;;;;17.22;100.00;101118.38;10507520;28;20109;-79
2023/06/12 22:50:27;;;;;;;8.05;5.70;;;;;;;17.11;100.00;101120.78;10506981;28;20036;-80
2023/06/12 22:55:28;;;;;;;7.65;5.45;;;;;;;17.10;100.00;101118.09;10525620;28;20047;-80